Perry Park, Kentucky
Current Conditions -  °F | °C
As of 1:53 PM on Friday 24 Oct 2014 (Local Time) from KFFT Reporting Station
Clear Clear  
Wind Chill: 61°   Ceiling: Unl
Heat Index: 61°   Visibility: 10mi
Dew Point: 42°   Wind: 0mph
Humidity: 50%   Direction: NA
Pressure: 30.08"   Gusts: NA
Location:  38.55°N, 85°W
Report Text: KFFT 241753Z AUTO 00000KT 10SM CLR 16/06 A3008 RMK AO2 SLP188 T01610056 10167 20028 58017
Loading
Personal Weather Stations






























Interactive Weather Map
Tropical Storm Tracking
New forecast layout! Learn more

10-Day Weather Forecast

Advertisements
Track Severe Weather on mobile